createdAt,value
2017-09-28T00:00:14.196Z,13
2017-09-28T00:01:13.255Z,13
2017-09-28T00:04:09.951Z,12.9
2017-09-28T00:05:09.753Z,12.9
2017-09-28T00:06:09.176Z,12.9
2017-09-28T00:07:08.099Z,12.9
2017-09-28T00:08:07.402Z,12.9
2017-09-28T00:09:06.960Z,12.9
2017-09-28T00:09:37.320Z,12.9
2017-09-28T00:11:04.932Z,12.9
2017-09-28T00:13:03.620Z,12.8
2017-09-28T00:14:02.679Z,12.8
2017-09-28T00:15:01.978Z,12.8
2017-09-28T00:17:00.043Z,12.8
2017-09-28T00:17:59.720Z,12.8
2017-09-28T00:18:59.025Z,12.8
2017-09-28T00:20:57.337Z,12.8
2017-09-28T00:22:55.397Z,12.7
2017-09-28T00:23:54.828Z,12.7
2017-09-28T00:24:54.270Z,12.7
2017-09-28T00:25:52.942Z,12.7
2017-09-28T00:26:52.372Z,12.7
2017-09-28T00:27:51.556Z,12.7
2017-09-28T00:28:50.603Z,12.7
2017-09-28T00:31:48.426Z,12.7
2017-09-28T00:32:47.356Z,12.7
2017-09-28T00:33:47.164Z,12.6
2017-09-28T00:34:46.196Z,12.6
2017-09-28T00:35:45.505Z,12.6
2017-09-28T00:36:15.876Z,12.6
2017-09-28T00:38:42.751Z,12.6
2017-09-28T00:39:41.925Z,12.6
2017-09-28T00:40:41.974Z,12.6
2017-09-28T00:41:40.899Z,12.6
2017-09-28T00:42:39.585Z,12.6
2017-09-28T00:43:39.025Z,12.6
2017-09-28T00:44:38.326Z,12.5
2017-09-28T00:45:37.380Z,12.6
2017-09-28T00:47:36.204Z,12.5
2017-09-28T00:48:35.012Z,12.6
2017-09-28T00:49:34.189Z,12.5
2017-09-28T00:50:33.499Z,12.5
2017-09-28T00:51:32.922Z,12.5
2017-09-28T00:53:31.494Z,12.5
2017-09-28T00:54:29.918Z,12.5
2017-09-28T00:55:00.662Z,12.5
2017-09-28T00:55:30.901Z,12.5
2017-09-28T00:56:01.135Z,12.5
2017-09-28T00:57:27.865Z,12.5
2017-09-28T00:58:26.790Z,12.5
2017-09-28T00:59:26.604Z,12.5
2017-09-28T01:00:25.780Z,12.5
2017-09-28T01:02:23.841Z,12.5
2017-09-28T01:03:23.026Z,12.5
2017-09-28T01:04:22.079Z,12.5
2017-09-28T01:05:21.387Z,12.4
2017-09-28T01:06:20.704Z,12.4
2017-09-28T01:07:20.002Z,12.5
2017-09-28T01:09:18.815Z,12.4
2017-09-28T01:10:17.487Z,12.4
2017-09-28T01:11:17.168Z,12.4
2017-09-28T02:59:10.520Z,12.1
2017-09-28T03:00:47.961Z,12
2017-09-28T03:01:47.193Z,11.9
2017-09-28T03:02:46.262Z,11.9
2017-09-28T03:03:46.085Z,11.9
2017-09-28T03:04:44.897Z,11.9
2017-09-28T03:09:40.870Z,11.8
2017-09-28T03:10:39.934Z,11.8
2017-09-28T03:12:38.635Z,11.8
2017-09-28T03:13:37.952Z,11.8
2017-09-28T03:17:34.163Z,11.8
2017-09-28T03:19:32.612Z,11.8
2017-09-28T03:20:31.929Z,11.7
2017-09-28T03:21:31.250Z,11.7
2017-09-28T03:22:30.436Z,11.7
2017-09-28T03:23:29.884Z,11.7
2017-09-28T03:24:28.572Z,11.7
2017-09-28T03:25:27.635Z,11.7
2017-09-28T03:26:27.459Z,11.7
2017-09-28T03:29:25.179Z,11.7
2017-09-28T03:30:23.873Z,11.6
2017-09-28T03:32:21.945Z,11.7
2017-09-28T03:33:21.637Z,11.6
2017-09-28T03:35:19.581Z,11.6
2017-09-28T03:36:19.147Z,11.6
2017-09-28T03:37:18.459Z,11.6
2017-09-28T03:38:17.648Z,11.6
2017-09-28T03:39:16.357Z,11.6
2017-09-28T03:41:15.185Z,11.6
2017-09-28T03:42:14.503Z,11.6
2017-09-28T03:43:13.060Z,11.6
2017-09-28T03:44:12.499Z,11.6
2017-09-28T03:47:10.089Z,11.5
2017-09-28T03:50:07.806Z,11.5
2017-09-28T03:51:06.737Z,11.5
2017-09-28T03:52:06.059Z,11.5
2017-09-28T03:57:01.662Z,11.5
2017-09-28T04:05:54.563Z,11.4
2017-09-28T04:08:52.025Z,11.4
2017-09-28T04:09:50.966Z,11.4
2017-09-28T04:10:50.657Z,11.4
2017-09-28T04:11:49.720Z,11.3
2017-09-28T04:14:47.043Z,11.3
2017-09-28T04:15:46.351Z,11.3
2017-09-28T04:16:45.797Z,11.3
2017-09-28T04:17:44.612Z,11.3
2017-09-28T04:18:44.175Z,11.3
2017-09-28T04:19:43.248Z,11.3
2017-09-28T04:20:42.561Z,11.3
2017-09-28T04:23:40.156Z,11.3
2017-09-28T04:25:38.489Z,11.3
2017-09-28T04:26:37.418Z,11.3
2017-09-28T04:27:36.609Z,11.3
2017-09-28T04:28:36.054Z,11.3
2017-09-28T04:29:35.370Z,11.3
2017-09-28T04:30:33.934Z,11.3
2017-09-28T04:31:33.250Z,11.2
2017-09-28T04:32:32.574Z,11.2
2017-09-28T04:33:31.768Z,11.2
2017-09-28T04:34:02.269Z,11.2
2017-09-28T04:34:33.023Z,11.2
2017-09-28T04:35:30.199Z,11.2
2017-09-28T04:39:27.050Z,11.2
2017-09-28T04:41:25.374Z,11.2
2017-09-28T04:43:23.323Z,11.2
2017-09-28T04:43:53.570Z,11.2
2017-09-28T04:45:21.946Z,11.2
2017-09-28T04:46:21.633Z,11.1
2017-09-28T04:47:20.445Z,11.1
2017-09-28T04:50:18.023Z,11.1
2017-09-28T04:51:17.093Z,11.1
2017-09-28T04:52:16.155Z,11.1
2017-09-28T04:54:14.225Z,11.1
2017-09-28T04:55:13.539Z,11
2017-09-28T04:56:13.118Z,11
2017-09-28T04:57:12.050Z,11
2017-09-28T04:59:10.284Z,11
2017-09-28T05:00:09.472Z,11
2017-09-28T05:01:08.786Z,11
2017-09-28T05:02:07.970Z,11
2017-09-28T05:03:07.283Z,11
2017-09-28T05:04:06.350Z,11
2017-09-28T05:05:05.916Z,11
2017-09-28T05:06:04.722Z,11
2017-09-28T05:07:04.160Z,11
2017-09-28T05:08:02.985Z,11
2017-09-28T05:09:02.296Z,11
2017-09-28T05:10:01.353Z,10.9
2017-09-28T05:11:00.791Z,10.9
2017-09-28T05:12:58.736Z,10.9
2017-09-28T05:13:58.042Z,10.9
2017-09-28T05:14:57.480Z,11
2017-09-28T05:15:56.165Z,10.9
2017-09-28T05:16:55.475Z,10.9
2017-09-28T05:17:54.805Z,10.9
2017-09-28T05:18:53.618Z,11
2017-09-28T05:19:52.935Z,11
2017-09-28T05:21:51.015Z,10.9
2017-09-28T05:22:50.847Z,10.9
2017-09-28T05:23:49.529Z,10.9
2017-09-28T05:24:48.850Z,10.9
2017-09-28T05:25:19.474Z,10.9
2017-09-28T05:25:49.984Z,10.9
2017-09-28T05:26:19.856Z,10.9
2017-09-28T05:26:50.366Z,10.9
2017-09-28T05:27:20.747Z,10.9
2017-09-28T05:28:45.594Z,10.9
2017-09-28T05:30:43.789Z,10.9
2017-09-28T05:31:42.989Z,10.9
2017-09-28T05:32:42.303Z,10.9
2017-09-28T05:33:41.492Z,10.9
2017-09-28T05:34:41.067Z,10.9
2017-09-28T05:35:39.881Z,10.9
2017-09-28T05:36:10.383Z,10.9
2017-09-28T05:36:41.021Z,10.9
2017-09-28T05:37:11.399Z,10.9
2017-09-28T05:38:37.139Z,10.9
2017-09-28T05:43:32.992Z,10.9
2017-09-28T05:44:32.186Z,10.9
2017-09-28T05:45:31.871Z,10.9
2017-09-28T05:49:28.340Z,10.9
2017-09-28T05:50:27.405Z,10.9
2017-09-28T05:51:26.381Z,10.9
2017-09-28T05:53:24.960Z,10.9
2017-09-28T05:55:23.032Z,10.9
2017-09-28T05:56:22.351Z,10.9
2017-09-28T05:57:21.543Z,10.9
2017-09-28T05:58:20.851Z,10.9
2017-09-28T06:00:18.668Z,11
2017-09-28T06:02:17.364Z,11
2017-09-28T06:03:16.811Z,11
2017-09-28T06:05:15.018Z,11
2017-09-28T06:06:14.206Z,11.1
2017-09-28T06:07:12.886Z,11.1
2017-09-28T06:07:43.380Z,11.1
2017-09-28T06:08:14.010Z,11.1
2017-09-28T06:09:12.192Z,11.1
2017-09-28T06:10:10.878Z,11.1
2017-09-28T06:11:10.189Z,11.1
2017-09-28T06:12:08.870Z,11.1
2017-09-28T06:13:08.186Z,11.1
2017-09-28T06:14:07.376Z,11.1
2017-09-28T06:15:06.573Z,11.2
2017-09-28T06:16:06.016Z,11.2
2017-09-28T06:17:05.330Z,11.2
2017-09-28T06:17:35.965Z,11.2
2017-09-28T06:19:03.212Z,11.2
2017-09-28T06:21:01.669Z,11.2
2017-09-28T06:22:00.980Z,11.3
2017-09-28T06:23:59.057Z,11.3
2017-09-28T06:24:58.123Z,11.3
2017-09-28T06:25:57.181Z,11.3
2017-09-28T06:27:55.877Z,11.3
2017-09-28T06:28:55.070Z,11.4
2017-09-28T06:29:54.511Z,11.4
2017-09-28T06:30:53.345Z,11.4
2017-09-28T06:31:52.539Z,11.4
2017-09-28T06:32:51.966Z,11.5
2017-09-28T06:33:50.770Z,11.5
2017-09-28T06:34:50.087Z,11.5
2017-09-28T06:36:48.153Z,11.5
2017-09-28T06:37:47.580Z,11.6
2017-09-28T06:38:46.894Z,11.6
2017-09-28T06:40:45.102Z,11.7
2017-09-28T06:42:43.303Z,11.7
2017-09-28T06:44:41.875Z,11.8
2017-09-28T06:45:41.201Z,11.8
2017-09-28T06:46:40.011Z,11.8
2017-09-28T06:47:39.321Z,11.9
2017-09-28T06:48:38.885Z,11.9
2017-09-28T06:49:37.570Z,11.9
2017-09-28T06:50:36.778Z,11.9
2017-09-28T06:52:35.459Z,12
2017-09-28T06:53:34.149Z,12
2017-09-28T06:54:33.373Z,12
2017-09-28T06:55:32.824Z,12
2017-09-28T06:56:32.134Z,12
2017-09-28T06:57:31.074Z,12.1
2017-09-28T06:58:30.261Z,12.1
2017-09-28T06:59:29.588Z,12.1
2017-09-28T07:00:28.772Z,12.1
2017-09-28T07:01:27.836Z,12.2
2017-09-28T07:02:27.160Z,12.2
2017-09-28T07:02:57.292Z,12.2
2017-09-28T07:03:27.924Z,12.2
2017-09-28T07:03:58.169Z,12.2
2017-09-28T07:05:24.672Z,12.2
2017-09-28T07:06:23.860Z,12.2
2017-09-28T07:07:22.917Z,12.3
2017-09-28T07:09:21.236Z,12.3
2017-09-28T07:10:20.429Z,12.3
2017-09-28T07:11:19.626Z,12.4
2017-09-28T07:13:18.326Z,12.4
2017-09-28T07:13:48.957Z,12.4
2017-09-28T07:14:19.711Z,12.5
2017-09-28T07:14:49.706Z,12.5
2017-09-28T07:16:15.704Z,12.6
2017-09-28T07:17:14.643Z,12.6
2017-09-28T07:18:13.828Z,12.6
2017-09-28T07:19:13.395Z,12.7
2017-09-28T07:20:12.332Z,12.7
2017-09-28T07:21:11.268Z,12.7
2017-09-28T07:22:10.446Z,12.8
2017-09-28T07:23:09.763Z,12.8
2017-09-28T07:24:09.080Z,12.9
2017-09-28T07:25:08.520Z,13
2017-09-28T07:26:07.339Z,13
2017-09-28T07:27:06.396Z,13.1
2017-09-28T07:28:05.713Z,13.1
2017-09-28T07:29:05.036Z,13.2
2017-09-28T07:30:04.353Z,13.3
2017-09-28T07:31:03.541Z,13.3
2017-09-28T07:32:02.728Z,13.4
2017-09-28T07:33:01.540Z,13.4
2017-09-28T07:34:00.599Z,13.4
2017-09-28T07:34:59.925Z,13.5
2017-09-28T07:35:59.363Z,13.5
2017-09-28T07:36:58.810Z,13.6
2017-09-28T07:37:57.372Z,13.6
2017-09-28T07:39:56.196Z,13.7
2017-09-28T07:40:55.262Z,13.7
2017-09-28T07:41:54.583Z,13.8
2017-09-28T07:42:24.982Z,13.8
2017-09-28T07:42:55.487Z,13.8
2017-09-28T07:43:26.244Z,13.8
2017-09-28T07:43:56.243Z,13.9
2017-09-28T07:44:26.746Z,13.9
2017-09-28T07:44:57.377Z,13.9
2017-09-28T07:45:27.879Z,13.9
2017-09-28T07:46:50.591Z,14
2017-09-28T07:47:50.038Z,14.1
2017-09-28T07:48:48.724Z,14.1
2017-09-28T07:49:48.299Z,14.1
2017-09-28T07:50:46.983Z,14.2
2017-09-28T07:51:46.300Z,14.2
2017-09-28T07:52:17.057Z,14.2
2017-09-28T07:52:47.439Z,14.2
2017-09-28T07:53:18.074Z,14.2
2017-09-28T07:53:48.197Z,14.3
2017-09-28T07:54:18.825Z,14.3
2017-09-28T07:54:49.329Z,14.3
2017-09-28T07:55:19.950Z,14.3
2017-09-28T07:55:50.452Z,14.3
2017-09-28T07:56:20.949Z,14.3
2017-09-28T07:59:40.174Z,14.4
2017-09-28T08:00:39.362Z,14.4
2017-09-28T08:01:38.806Z,14.4
2017-09-28T08:02:37.735Z,14.4
2017-09-28T08:03:36.803Z,14.5
2017-09-28T08:04:36.001Z,14.5
2017-09-28T08:05:35.567Z,14.5
2017-09-28T08:06:34.757Z,14.5
2017-09-28T08:07:34.069Z,14.5
2017-09-28T08:08:33.005Z,14.5
2017-09-28T08:09:32.446Z,14.5
2017-09-28T08:10:31.771Z,14.5
2017-09-28T08:11:31.216Z,14.5
2017-09-28T08:12:30.024Z,14.5
2017-09-28T08:13:29.090Z,14.5
2017-09-28T08:14:28.282Z,14.5
2017-09-28T08:15:27.990Z,14.5
2017-09-28T08:16:26.939Z,14.5
2017-09-28T08:17:25.998Z,14.5
2017-09-28T08:18:25.190Z,14.5
2017-09-28T08:19:24.757Z,14.6
2017-09-28T08:20:23.442Z,14.6
2017-09-28T08:21:22.886Z,14.6
2017-09-28T08:22:21.948Z,14.6
2017-09-28T08:23:21.261Z,14.6
2017-09-28T08:24:20.587Z,14.6
2017-09-28T08:24:51.210Z,14.6
2017-09-28T08:25:21.845Z,14.7
2017-09-28T08:26:19.155Z,14.7
2017-09-28T08:26:49.528Z,14.7
2017-09-28T08:27:20.154Z,14.7
2017-09-28T08:28:17.705Z,14.7
2017-09-28T08:29:16.768Z,14.8
2017-09-28T08:30:16.205Z,14.8
2017-09-28T08:31:15.550Z,14.8
2017-09-28T08:32:14.113Z,14.9
2017-09-28T08:33:13.805Z,14.9
2017-09-28T08:34:12.492Z,15
2017-09-28T08:35:12.179Z,15
2017-09-28T08:35:42.482Z,15
2017-09-28T08:36:12.856Z,15.1
2017-09-28T08:36:43.618Z,15.1
2017-09-28T08:37:13.745Z,15.1
2017-09-28T08:38:09.457Z,15.2
2017-09-28T08:39:08.645Z,15.2
2017-09-28T08:40:07.863Z,15.3
2017-09-28T08:41:07.434Z,15.3
2017-09-28T08:42:06.694Z,15.4
2017-09-28T08:43:05.873Z,15.4
2017-09-28T08:44:05.225Z,15.5
2017-09-28T08:45:04.537Z,15.5
2017-09-28T08:46:03.513Z,15.5
2017-09-28T08:47:03.087Z,15.6
2017-09-28T08:48:02.321Z,15.6
2017-09-28T08:49:01.388Z,15.6
2017-09-28T08:50:59.375Z,15.7
2017-09-28T08:51:58.857Z,15.7
2017-09-28T08:52:57.937Z,15.7
2017-09-28T08:53:57.408Z,15.8
2017-09-28T08:54:56.470Z,15.8
2017-09-28T08:55:55.953Z,15.8
2017-09-28T08:56:55.511Z,15.8
2017-09-28T08:57:54.483Z,15.9
2017-09-28T08:58:53.546Z,15.9
2017-09-28T08:59:52.654Z,15.9
2017-09-28T09:00:52.217Z,15.9
2017-09-28T09:01:52.068Z,16
2017-09-28T09:02:51.134Z,16
2017-09-28T09:03:50.113Z,16.1
2017-09-28T09:04:49.048Z,16.1
2017-09-28T09:05:48.538Z,16.2
2017-09-28T09:06:48.113Z,16.2
2017-09-28T09:07:47.084Z,16.2
2017-09-28T09:08:46.394Z,16.2
2017-09-28T09:09:45.117Z,16.3
2017-09-28T09:10:44.933Z,16.3
2017-09-28T09:11:43.782Z,16.3
2017-09-28T09:12:42.837Z,16.3
2017-09-28T09:13:42.437Z,16.4
2017-09-28T09:14:41.627Z,16.4
2017-09-28T09:15:40.860Z,16.4
2017-09-28T09:16:40.049Z,16.4
2017-09-28T09:17:39.404Z,16.4
2017-09-28T09:18:38.670Z,16.5
2017-09-28T09:19:38.147Z,16.5
2017-09-28T09:20:37.329Z,16.5
2017-09-28T09:21:36.799Z,16.5
2017-09-28T09:22:07.304Z,16.5
2017-09-28T09:22:37.800Z,16.5
2017-09-28T09:23:34.646Z,16.6
2017-09-28T09:24:34.210Z,16.6
2017-09-28T09:25:33.826Z,16.6
2017-09-28T09:26:32.265Z,16.7
2017-09-28T09:27:31.968Z,16.7
2017-09-28T09:28:31.322Z,16.7
2017-09-28T09:29:30.634Z,16.7
2017-09-28T09:30:29.604Z,16.7
2017-09-28T09:31:29.037Z,16.7
2017-09-28T09:31:59.576Z,16.7
2017-09-28T09:33:27.322Z,16.8
2017-09-28T09:34:26.670Z,16.8
2017-09-28T09:36:25.290Z,16.8
2017-09-28T09:37:24.480Z,16.8
2017-09-28T09:38:23.958Z,16.8
2017-09-28T09:39:23.148Z,16.9
2017-09-28T09:40:22.881Z,16.9
2017-09-28T09:41:21.691Z,16.9
2017-09-28T09:42:21.039Z,16.9
2017-09-28T09:43:20.228Z,16.9
2017-09-28T09:44:19.697Z,16.9
2017-09-28T09:45:19.013Z,16.9
2017-09-28T09:46:18.140Z,17
2017-09-28T09:47:17.589Z,17
2017-09-28T09:48:16.592Z,17
2017-09-28T09:49:15.908Z,17.1
2017-09-28T09:50:15.261Z,17.1
2017-09-28T09:51:14.577Z,17.1
2017-09-28T09:52:13.671Z,17.2
2017-09-28T09:53:12.996Z,17.2
2017-09-28T09:54:11.838Z,17.2
2017-09-28T09:55:11.657Z,17.2
2017-09-28T09:56:10.511Z,17.3
2017-09-28T09:57:09.938Z,17.3
2017-09-28T09:58:09.417Z,17.3
2017-09-28T09:59:09.105Z,17.4
2017-09-28T10:00:07.949Z,17.4
2017-09-28T10:01:07.276Z,17.4
2017-09-28T10:02:06.119Z,17.4
2017-09-28T10:02:36.751Z,17.4
2017-09-28T10:04:05.048Z,17.4
2017-09-28T10:05:04.118Z,17.4
2017-09-28T10:06:03.464Z,17.4
2017-09-28T10:07:02.532Z,17.4
2017-09-28T10:08:01.764Z,17.5
2017-09-28T10:09:01.453Z,17.5
2017-09-28T10:11:00.225Z,17.5
2017-09-28T10:11:59.200Z,17.6
2017-09-28T10:12:58.511Z,17.6
2017-09-28T10:13:29.013Z,17.6
2017-09-28T10:13:59.674Z,17.6
2017-09-28T10:14:30.300Z,17.6
2017-09-28T10:15:00.796Z,17.7
2017-09-28T10:15:31.177Z,17.7
2017-09-28T10:17:54.494Z,17.8
2017-09-28T10:18:54.312Z,17.8
2017-09-28T10:19:53.373Z,17.8
2017-09-28T10:20:52.441Z,17.9
2017-09-28T10:21:52.256Z,17.9
2017-09-28T10:22:51.446Z,17.9
2017-09-28T10:24:50.273Z,17.9
2017-09-28T10:25:20.152Z,17.9
2017-09-28T10:25:50.793Z,18
2017-09-28T10:26:21.682Z,18
2017-09-28T10:26:51.832Z,18
2017-09-28T10:27:48.120Z,18
2017-09-28T10:28:46.931Z,18
2017-09-28T10:29:46.247Z,18
2017-09-28T10:30:45.307Z,18
2017-09-28T10:31:45.003Z,18
2017-09-28T10:32:44.445Z,18
2017-09-28T10:33:43.640Z,18.1
2017-09-28T10:34:42.706Z,18.1
2017-09-28T10:35:42.277Z,18.1
2017-09-28T10:36:41.606Z,18.1
2017-09-28T10:37:40.667Z,18.1
2017-09-28T10:38:40.115Z,18.1
2017-09-28T10:39:39.182Z,18.2
2017-09-28T10:40:38.250Z,18.2
2017-09-28T10:41:38.205Z,18.2
2017-09-28T10:42:37.648Z,18.2
2017-09-28T10:43:36.330Z,18.2
2017-09-28T10:44:35.774Z,18.2
2017-09-28T10:45:34.959Z,18.3
2017-09-28T10:46:34.020Z,18.3
2017-09-28T10:47:33.716Z,18.3
2017-09-28T10:48:33.032Z,18.3
2017-09-28T10:49:31.941Z,18.3
2017-09-28T10:50:31.921Z,18.4
2017-09-28T10:51:31.067Z,18.4
2017-09-28T10:52:30.385Z,18.4
2017-09-28T10:53:29.260Z,18.4
2017-09-28T10:54:28.587Z,18.4
2017-09-28T10:55:27.961Z,18.5
2017-09-28T10:56:27.270Z,18.5
2017-09-28T10:56:57.906Z,18.5
2017-09-28T10:58:25.830Z,18.5
2017-09-28T10:59:25.020Z,18.5
2017-09-28T11:00:25.145Z,18.5
2017-09-28T11:01:24.084Z,18.6
2017-09-28T11:02:23.527Z,18.6
2017-09-28T11:03:22.513Z,18.6
2017-09-28T11:04:21.582Z,18.6
2017-09-28T11:05:20.906Z,18.6
2017-09-28T11:06:20.712Z,18.7
2017-09-28T11:07:19.705Z,18.7
2017-09-28T11:07:50.458Z,18.7
2017-09-28T11:08:20.453Z,18.7
2017-09-28T11:09:18.444Z,18.7
2017-09-28T11:10:17.499Z,18.7
2017-09-28T11:11:16.985Z,18.7
2017-09-28T11:12:16.175Z,18.7
2017-09-28T11:14:15.050Z,18.8
2017-09-28T11:15:14.414Z,18.8
2017-09-28T11:16:13.606Z,18.8
2017-09-28T11:17:12.799Z,18.8
2017-09-28T11:18:12.008Z,18.8
2017-09-28T11:19:11.071Z,18.8
2017-09-28T11:20:11.031Z,18.8
2017-09-28T11:21:10.346Z,18.8
2017-09-28T11:22:09.078Z,18.8
2017-09-28T11:23:08.907Z,18.8
2017-09-28T11:24:08.001Z,18.9
2017-09-28T11:25:07.317Z,18.9
2017-09-28T11:26:06.548Z,18.9
2017-09-28T11:27:05.750Z,18.9
2017-09-28T11:28:05.110Z,18.9
2017-09-28T11:29:04.679Z,18.9
2017-09-28T11:30:04.125Z,18.9
2017-09-28T11:31:03.437Z,18.9
2017-09-28T11:32:02.649Z,18.9
2017-09-28T11:33:01.716Z,18.9
2017-09-28T11:34:00.921Z,18.9
2017-09-28T11:35:59.876Z,18.9
2017-09-28T11:36:59.060Z,18.9
2017-09-28T11:37:58.650Z,18.9
2017-09-28T11:38:57.838Z,18.9
2017-09-28T11:39:57.190Z,18.9
2017-09-28T11:40:56.253Z,19
2017-09-28T11:41:55.832Z,19
2017-09-28T11:42:55.022Z,19
2017-09-28T11:43:54.343Z,19.1
2017-09-28T11:44:53.660Z,19.1
2017-09-28T11:45:53.119Z,19.1
2017-09-28T11:46:52.179Z,19.1
2017-09-28T11:47:51.639Z,19.1
2017-09-28T11:48:51.077Z,19.2
2017-09-28T11:49:50.068Z,19.2
2017-09-28T11:50:49.754Z,19.2
2017-09-28T11:51:48.987Z,19.2
2017-09-28T11:52:48.049Z,19.2
2017-09-28T11:53:47.499Z,19.2
2017-09-28T11:54:46.692Z,19.2
2017-09-28T11:55:46.131Z,19.3
2017-09-28T11:56:45.200Z,19.3
2017-09-28T11:57:45.402Z,19.3
2017-09-28T11:58:44.216Z,19.3
2017-09-28T11:59:43.809Z,19.3
2017-09-28T12:00:43.124Z,19.3
2017-09-28T12:01:41.812Z,19.3
2017-09-28T12:02:41.497Z,19.3
2017-09-28T12:03:40.813Z,19.3
2017-09-28T12:04:39.877Z,19.3
2017-09-28T12:05:39.456Z,19.3
2017-09-28T12:06:38.900Z,19.3
2017-09-28T12:07:38.501Z,19.3
2017-09-28T12:08:08.625Z,19.3
2017-09-28T12:08:38.617Z,19.3
2017-09-28T12:09:36.925Z,19.3
2017-09-28T12:10:36.243Z,19.3
2017-09-28T12:11:35.306Z,19.3
2017-09-28T12:12:34.627Z,19.3
2017-09-28T12:13:34.577Z,19.3
2017-09-28T12:14:33.402Z,19.3
2017-09-28T12:15:32.338Z,19.3
2017-09-28T12:16:32.463Z,19.3
2017-09-28T12:17:31.772Z,19.3
2017-09-28T12:18:30.712Z,19.3
2017-09-28T12:19:29.897Z,19.3
2017-09-28T12:20:29.344Z,19.3
2017-09-28T12:21:28.535Z,19.3
2017-09-28T12:22:27.988Z,19.3
2017-09-28T12:23:27.184Z,19.3
2017-09-28T12:24:26.380Z,19.3
2017-09-28T12:25:26.329Z,19.3
2017-09-28T12:26:25.270Z,19.3
2017-09-28T12:27:24.875Z,19.4
2017-09-28T12:28:23.814Z,19.4
2017-09-28T12:29:23.013Z,19.3
2017-09-28T12:30:22.664Z,19.3
2017-09-28T12:31:21.981Z,19.3
2017-09-28T12:32:21.313Z,19.4
2017-09-28T12:33:20.496Z,19.4
2017-09-28T12:34:19.698Z,19.4
2017-09-28T12:35:19.517Z,19.4
2017-09-28T12:36:18.963Z,19.4
2017-09-28T12:38:17.417Z,19.4
2017-09-28T12:39:16.610Z,19.4
2017-09-28T12:40:16.068Z,19.5
2017-09-28T12:41:15.636Z,19.5
2017-09-28T12:42:14.452Z,19.5
2017-09-28T12:44:12.909Z,19.5
2017-09-28T12:45:12.975Z,19.5
2017-09-28T12:46:11.721Z,19.5
2017-09-28T12:47:11.541Z,19.5
2017-09-28T12:48:10.897Z,19.5
2017-09-28T12:49:10.210Z,19.5
2017-09-28T12:50:09.340Z,19.5
2017-09-28T12:51:08.650Z,19.5
2017-09-28T12:52:08.218Z,19.5
2017-09-28T12:53:07.533Z,19.5
2017-09-28T12:54:06.987Z,19.6
2017-09-28T12:55:06.056Z,19.6
2017-09-28T12:56:05.635Z,19.6
2017-09-28T12:57:04.950Z,19.7
2017-09-28T12:58:04.398Z,19.7
2017-09-28T12:59:03.459Z,19.7
2017-09-28T13:00:02.778Z,19.8
2017-09-28T13:01:02.105Z,19.8
2017-09-28T13:02:01.428Z,19.8
2017-09-28T13:03:00.628Z,19.8
2017-09-28T13:03:59.692Z,19.9
2017-09-28T13:04:59.389Z,19.9
2017-09-28T13:05:58.591Z,19.9
2017-09-28T13:06:58.408Z,19.9
2017-09-28T13:07:57.478Z,20
2017-09-28T13:08:56.673Z,20
2017-09-28T13:09:55.873Z,20
2017-09-28T13:10:55.689Z,20
2017-09-28T13:11:54.516Z,20
2017-09-28T13:12:54.331Z,20
2017-09-28T13:13:53.644Z,20
2017-09-28T13:14:52.973Z,20
2017-09-28T13:15:52.195Z,20
2017-09-28T13:16:51.783Z,20
2017-09-28T13:17:50.969Z,20
2017-09-28T13:18:49.951Z,20
2017-09-28T13:19:49.638Z,20
2017-09-28T13:20:49.084Z,20
2017-09-28T13:21:48.657Z,20
2017-09-28T13:22:47.345Z,20
2017-09-28T13:23:47.290Z,19.9
2017-09-28T13:24:46.235Z,20
2017-09-28T13:25:45.678Z,19.9
2017-09-28T13:26:44.744Z,19.9
2017-09-28T13:27:43.941Z,19.9
2017-09-28T13:28:43.693Z,19.9
2017-09-28T13:29:42.888Z,19.9
2017-09-28T13:30:42.094Z,19.9
2017-09-28T13:31:41.284Z,19.9
2017-09-28T13:32:41.111Z,19.9
2017-09-28T13:33:40.297Z,19.9
2017-09-28T13:34:39.619Z,19.8
2017-09-28T13:35:38.683Z,19.8
2017-09-28T13:36:38.759Z,19.8
2017-09-28T13:37:37.571Z,19.8
2017-09-28T13:38:37.282Z,19.8
2017-09-28T13:40:36.115Z,19.7
2017-09-28T13:41:35.185Z,19.7
2017-09-28T13:42:34.422Z,19.7
2017-09-28T13:43:33.610Z,19.7
2017-09-28T13:44:32.702Z,19.6
2017-09-28T13:45:32.521Z,19.6
2017-09-28T13:46:03.033Z,19.6
2017-09-28T13:46:33.531Z,19.6
2017-09-28T13:47:04.171Z,19.6
2017-09-28T13:48:30.704Z,19.5
2017-09-28T13:49:30.022Z,19.5
2017-09-28T13:50:29.470Z,19.5
2017-09-28T13:51:28.533Z,19.5
2017-09-28T13:52:27.986Z,19.4
2017-09-28T13:53:27.407Z,19.4
2017-09-28T13:54:26.478Z,19.4
2017-09-28T13:55:26.062Z,19.4
2017-09-28T13:56:25.266Z,19.4
2017-09-28T13:56:55.145Z,19.4
2017-09-28T13:57:25.894Z,19.3
2017-09-28T13:57:55.890Z,19.3
2017-09-28T13:59:23.429Z,19.3
2017-09-28T14:00:22.744Z,19.3
2017-09-28T14:01:21.813Z,19.2
2017-09-28T14:03:20.643Z,19.2
2017-09-28T14:04:19.985Z,19.2
2017-09-28T14:05:19.177Z,19.2
2017-09-28T14:06:18.381Z,19.2
2017-09-28T14:07:18.077Z,19.1
2017-09-28T14:08:17.697Z,19.1
2017-09-28T14:09:16.385Z,19.1
2017-09-28T14:10:15.746Z,19.1
2017-09-28T14:11:15.311Z,19.1
2017-09-28T14:12:14.760Z,19.1
2017-09-28T14:13:14.077Z,19.1
2017-09-28T14:14:13.404Z,19.1
2017-09-28T14:15:12.597Z,19
2017-09-28T14:16:11.866Z,19
2017-09-28T14:17:11.663Z,19
2017-09-28T14:18:10.665Z,19
2017-09-28T14:19:10.106Z,19
2017-09-28T14:20:09.169Z,19
2017-09-28T14:21:08.490Z,19
2017-09-28T14:22:08.311Z,19
2017-09-28T14:23:07.426Z,19
2017-09-28T14:24:06.743Z,19
2017-09-28T14:25:06.063Z,19
2017-09-28T14:26:05.630Z,19
2017-09-28T14:27:04.832Z,18.9
2017-09-28T14:28:04.024Z,18.9
2017-09-28T14:28:34.962Z,18.9
2017-09-28T14:29:05.465Z,18.9
2017-09-28T14:29:36.220Z,18.9
2017-09-28T14:30:06.851Z,18.9
2017-09-28T14:30:36.905Z,18.9
2017-09-28T14:32:01.259Z,18.9
2017-09-28T14:33:00.744Z,18.9
2017-09-28T14:33:59.806Z,18.9
2017-09-28T14:34:59.674Z,18.9
2017-09-28T14:35:58.742Z,18.9
2017-09-28T14:36:58.353Z,18.9
2017-09-28T14:37:57.662Z,18.9
2017-09-28T14:38:56.728Z,18.9
2017-09-28T14:39:27.358Z,18.9
2017-09-28T14:39:57.991Z,18.9
2017-09-28T14:40:28.363Z,18.9
2017-09-28T14:40:59.122Z,18.8
2017-09-28T14:41:29.371Z,18.8
2017-09-28T14:42:54.359Z,18.8
2017-09-28T14:43:53.418Z,18.8
2017-09-28T14:44:52.658Z,18.8
2017-09-28T14:45:51.846Z,18.8
2017-09-28T14:46:51.808Z,18.8
2017-09-28T14:47:51.249Z,18.8
2017-09-28T14:49:49.341Z,18.8
2017-09-28T14:50:48.824Z,18.8
2017-09-28T14:51:48.252Z,18.7
2017-09-28T14:52:47.697Z,18.7
2017-09-28T14:54:46.178Z,18.7
2017-09-28T14:55:45.877Z,18.7
2017-09-28T14:56:44.955Z,18.7
2017-09-28T14:57:44.135Z,18.7
2017-09-28T14:58:43.501Z,18.7
2017-09-28T14:59:42.945Z,18.7
2017-09-28T15:00:42.452Z,18.7
2017-09-28T15:01:41.768Z,18.7
2017-09-28T15:02:40.624Z,18.7
2017-09-28T15:03:40.566Z,18.6
2017-09-28T15:04:39.526Z,18.6
2017-09-28T15:05:38.849Z,18.6
2017-09-28T15:06:38.341Z,18.6
2017-09-28T15:07:37.399Z,18.6
2017-09-28T15:10:35.501Z,18.6
2017-09-28T15:11:34.956Z,18.6
2017-09-28T15:12:34.134Z,18.6
2017-09-28T15:13:33.717Z,18.6
2017-09-28T15:14:32.783Z,18.7
2017-09-28T15:15:32.222Z,18.7
2017-09-28T15:17:31.182Z,18.7
2017-09-28T15:18:29.998Z,18.8
2017-09-28T15:19:29.315Z,18.8
2017-09-28T15:20:29.010Z,18.8
2017-09-28T15:21:28.263Z,18.9
2017-09-28T15:22:27.707Z,18.9
2017-09-28T15:23:26.737Z,18.9
2017-09-28T15:24:26.178Z,18.9
2017-09-28T15:26:25.016Z,18.9
2017-09-28T15:27:24.207Z,19
2017-09-28T15:28:23.394Z,19
2017-09-28T15:29:22.872Z,19
2017-09-28T15:30:22.070Z,19
2017-09-28T15:32:20.777Z,19
2017-09-28T15:33:20.350Z,19
2017-09-28T15:34:19.539Z,19
2017-09-28T15:35:19.003Z,19
2017-09-28T15:36:18.441Z,19
2017-09-28T15:37:17.547Z,19
2017-09-28T15:37:47.914Z,19
2017-09-28T15:38:18.802Z,19
2017-09-28T15:38:49.052Z,19
2017-09-28T15:39:19.312Z,19
2017-09-28T15:40:15.606Z,19
2017-09-28T15:42:14.108Z,18.9
2017-09-28T15:43:13.337Z,19
2017-09-28T15:44:12.938Z,19
2017-09-28T15:45:12.350Z,18.9
2017-09-28T15:47:11.170Z,18.9
2017-09-28T15:48:10.368Z,18.9
2017-09-28T15:49:09.935Z,18.9
2017-09-28T15:50:08.916Z,18.9
2017-09-28T15:51:08.215Z,18.9
2017-09-28T15:52:07.543Z,18.9
2017-09-28T15:53:06.858Z,18.8
2017-09-28T15:54:06.171Z,18.8
2017-09-28T15:55:05.237Z,18.8
2017-09-28T15:56:04.819Z,18.8
2017-09-28T15:57:03.880Z,18.8
2017-09-28T15:58:03.441Z,18.8
2017-09-28T15:59:02.882Z,18.8
2017-09-28T16:00:02.199Z,18.7
2017-09-28T16:01:01.380Z,18.7
2017-09-28T16:02:00.700Z,18.7
2017-09-28T16:02:59.890Z,18.7
2017-09-28T16:03:59.583Z,18.7
2017-09-28T16:04:58.770Z,18.7
2017-09-28T16:05:57.836Z,18.6
2017-09-28T16:11:53.833Z,18.5
2017-09-28T16:13:53.039Z,18.4
2017-09-28T16:14:51.850Z,18.4
2017-09-28T16:15:51.043Z,18.4
2017-09-28T16:16:50.861Z,18.4
2017-09-28T16:17:50.314Z,18.3
2017-09-28T16:18:20.696Z,18.3
2017-09-28T16:19:48.694Z,18.3
2017-09-28T16:20:18.944Z,18.3